createdAt,value
2023-01-02T00:00:30.593Z,13.90
2023-01-02T00:01:30.550Z,14.70
2023-01-02T00:02:30.665Z,12.10
2023-01-02T00:03:30.710Z,14.70
2023-01-02T00:04:30.532Z,14.70
2023-01-02T00:05:30.529Z,15.70
2023-01-02T00:06:30.524Z,15.50
2023-01-02T00:07:30.514Z,16.50
2023-01-02T00:08:30.504Z,13.10
2023-01-02T00:09:30.511Z,15.70
2023-01-02T00:10:30.492Z,14.60
2023-01-02T00:11:30.487Z,16.20
2023-01-02T00:12:30.482Z,14.20
2023-01-02T00:13:30.478Z,14.90
2023-01-02T00:14:30.473Z,11.80
2023-01-02T00:15:30.463Z,15.60
2023-01-02T00:16:30.512Z,14.50
2023-01-02T00:17:30.456Z,14.80
2023-01-02T00:18:30.443Z,15.60
2023-01-02T00:19:30.439Z,15.30
2023-01-02T00:20:30.428Z,15.20
2023-01-02T00:21:30.432Z,15.20
2023-01-02T00:22:30.417Z,15.30
2023-01-02T00:23:30.409Z,13.30
2023-01-02T00:24:30.409Z,13.40
2023-01-02T00:25:30.399Z,13.90
2023-01-02T00:26:30.416Z,13.30
2023-01-02T00:27:30.385Z,13.70
2023-01-02T00:28:30.383Z,13.00
2023-01-02T00:29:30.376Z,14.30
2023-01-02T00:30:37.595Z,13.50
2023-01-02T00:31:30.395Z,11.10
2023-01-02T00:32:30.354Z,13.90
2023-01-02T00:33:30.347Z,14.00
2023-01-02T00:34:30.347Z,13.30
2023-01-02T00:35:30.335Z,15.50
2023-01-02T00:36:30.329Z,10.70
2023-01-02T00:37:30.332Z,12.90
2023-01-02T00:38:30.316Z,12.10
2023-01-02T00:39:30.312Z,13.40
2023-01-02T00:40:30.301Z,13.20
2023-01-02T00:41:30.296Z,15.30
2023-01-02T00:42:30.287Z,14.20
2023-01-02T00:43:30.283Z,13.10
2023-01-02T00:44:30.283Z,11.40
2023-01-02T00:45:30.275Z,11.70
2023-01-02T00:46:30.271Z,13.60
2023-01-02T00:47:30.369Z,13.20
2023-01-02T00:48:30.256Z,14.40
2023-01-02T00:49:30.246Z,13.40
2023-01-02T00:50:30.240Z,14.30
2023-01-02T00:51:30.245Z,10.10
2023-01-02T00:52:30.234Z,13.30
2023-01-02T00:53:30.220Z,11.00
2023-01-02T00:54:30.216Z,11.40
2023-01-02T00:55:30.203Z,12.20
2023-01-02T00:56:30.205Z,12.30
2023-01-02T00:57:30.199Z,13.30
2023-01-02T00:58:30.195Z,13.00
2023-01-02T00:59:30.182Z,9.10
2023-01-02T01:00:30.322Z,11.20
2023-01-02T01:01:30.281Z,11.00
2023-01-02T01:02:30.314Z,11.80
2023-01-02T01:03:30.163Z,13.30
2023-01-02T01:04:30.157Z,11.60
2023-01-02T01:05:30.145Z,12.30
2023-01-02T01:06:30.139Z,10.30
2023-01-02T01:07:30.144Z,10.30
2023-01-02T01:08:30.134Z,9.80
2023-01-02T01:09:30.122Z,11.40
2023-01-02T01:10:30.131Z,10.10
2023-01-02T01:11:30.105Z,9.40
2023-01-02T01:12:30.102Z,8.60
2023-01-02T01:13:30.094Z,10.90
2023-01-02T01:14:30.090Z,11.30
2023-01-02T01:15:30.082Z,11.70
2023-01-02T01:16:30.107Z,10.20
2023-01-02T01:17:30.066Z,10.30
2023-01-02T01:18:30.062Z,8.80
2023-01-02T01:19:30.056Z,10.70
2023-01-02T01:20:30.053Z,12.90
2023-01-02T01:21:30.047Z,10.00
2023-01-02T01:22:30.038Z,13.60
2023-01-02T01:23:30.030Z,10.60
2023-01-02T01:24:30.026Z,9.90
2023-01-02T01:25:30.018Z,11.10
2023-01-02T01:26:30.015Z,9.70
2023-01-02T01:27:30.004Z,10.30
2023-01-02T01:28:29.998Z,10.60
2023-01-02T01:29:29.989Z,10.60
2023-01-02T01:30:29.987Z,13.10
2023-01-02T01:31:30.025Z,9.50
2023-01-02T01:32:29.972Z,10.20
2023-01-02T01:33:29.970Z,10.70
2023-01-02T01:34:29.960Z,10.00
2023-01-02T01:35:29.957Z,10.60
2023-01-02T01:36:29.947Z,12.10
2023-01-02T01:37:29.942Z,12.90
2023-01-02T01:38:29.936Z,9.40
2023-01-02T01:39:29.929Z,9.90
2023-01-02T01:40:29.920Z,9.10
2023-01-02T01:41:29.915Z,11.90
2023-01-02T01:42:29.906Z,11.10
2023-01-02T01:43:29.901Z,10.30
2023-01-02T01:44:29.897Z,11.90
2023-01-02T01:45:29.929Z,9.70
2023-01-02T01:46:29.899Z,11.30
2023-01-02T01:47:29.884Z,10.60
2023-01-02T01:48:29.880Z,11.40
2023-01-02T01:49:29.864Z,11.00
2023-01-02T01:50:29.858Z,13.80
2023-01-02T01:51:29.930Z,11.20
2023-01-02T01:52:29.847Z,8.60
2023-01-02T01:53:29.836Z,9.40
2023-01-02T01:54:29.831Z,9.50
2023-01-02T01:55:29.828Z,9.90
2023-01-02T01:56:29.817Z,9.70
2023-01-02T01:57:29.814Z,9.80
2023-01-02T01:58:29.807Z,12.70
2023-01-02T01:59:29.797Z,12.20
2023-01-02T02:00:29.792Z,10.00
2023-01-02T02:01:29.969Z,9.80
2023-01-02T02:02:29.931Z,8.50
2023-01-02T02:03:29.772Z,10.10
2023-01-02T02:04:29.769Z,9.40
2023-01-02T02:05:29.773Z,10.00
2023-01-02T02:06:29.754Z,9.50
2023-01-02T02:07:29.747Z,11.90
2023-01-02T02:08:29.740Z,9.60
2023-01-02T02:09:29.736Z,9.30
2023-01-02T02:10:29.727Z,9.70
2023-01-02T02:11:29.724Z,9.90
2023-01-02T02:12:29.730Z,9.40
2023-01-02T02:13:29.738Z,9.70
2023-01-02T02:14:29.703Z,11.80
2023-01-02T02:15:29.697Z,10.10
2023-01-02T02:16:29.737Z,12.40
2023-01-02T02:17:29.683Z,9.80
2023-01-02T02:18:29.673Z,9.90
2023-01-02T02:19:29.680Z,10.10
2023-01-02T02:20:29.660Z,8.80
2023-01-02T02:21:29.656Z,10.70
2023-01-02T02:22:29.654Z,11.20
2023-01-02T02:23:29.663Z,8.20
2023-01-02T02:24:29.636Z,9.40
2023-01-02T02:25:29.630Z,8.90
2023-01-02T02:26:29.622Z,12.60
2023-01-02T02:27:29.617Z,10.90
2023-01-02T02:28:29.611Z,7.20
2023-01-02T02:29:29.612Z,9.40
2023-01-02T02:30:29.603Z,8.80
2023-01-02T02:31:29.612Z,8.70
2023-01-02T02:32:29.587Z,11.60
2023-01-02T02:33:29.584Z,10.10
2023-01-02T02:34:29.572Z,10.30
2023-01-02T02:35:29.571Z,9.70
2023-01-02T02:36:29.559Z,8.70
2023-01-02T02:37:29.555Z,8.80
2023-01-02T02:38:29.550Z,7.60
2023-01-02T02:39:29.541Z,10.70
2023-01-02T02:40:29.531Z,9.20
2023-01-02T02:41:29.528Z,9.20
2023-01-02T02:42:29.518Z,7.70
2023-01-02T02:43:29.513Z,10.60
2023-01-02T02:44:29.506Z,10.30
2023-01-02T02:45:29.528Z,9.20
2023-01-02T02:46:29.494Z,9.90
2023-01-02T02:47:29.486Z,8.00
2023-01-02T02:48:29.478Z,9.20
2023-01-02T02:49:29.474Z,9.90
2023-01-02T02:50:29.473Z,7.70
2023-01-02T02:51:29.462Z,8.90
2023-01-02T02:52:29.455Z,8.70
2023-01-02T02:53:29.447Z,10.90
2023-01-02T02:54:29.456Z,11.70
2023-01-02T02:55:29.434Z,9.00
2023-01-02T02:56:29.438Z,7.80
2023-01-02T02:57:29.423Z,8.60
2023-01-02T02:58:29.424Z,9.20
2023-01-02T02:59:29.410Z,8.30
2023-01-02T03:00:29.404Z,9.40
2023-01-02T03:01:30.803Z,8.50
2023-01-02T03:02:29.588Z,6.90
2023-01-02T03:03:29.425Z,9.90
2023-01-02T03:04:29.382Z,8.80
2023-01-02T03:05:29.371Z,9.20
2023-01-02T03:06:29.360Z,10.50
2023-01-02T03:07:29.355Z,10.20
2023-01-02T03:08:33.042Z,7.00
2023-01-02T03:09:29.349Z,8.80
2023-01-02T03:10:29.336Z,7.70
2023-01-02T03:11:29.331Z,9.60
2023-01-02T03:12:29.324Z,8.80
2023-01-02T03:13:29.553Z,7.30
2023-01-02T03:14:29.310Z,10.40
2023-01-02T03:15:29.304Z,7.40
2023-01-02T03:16:29.324Z,10.70
2023-01-02T03:17:29.296Z,8.70
2023-01-02T03:18:29.283Z,9.40
2023-01-02T03:19:29.289Z,9.50
2023-01-02T03:20:29.269Z,7.10
2023-01-02T03:21:31.417Z,8.90
2023-01-02T03:22:29.266Z,9.40
2023-01-02T03:23:29.273Z,9.40
2023-01-02T03:24:29.268Z,7.60
2023-01-02T03:25:29.238Z,8.10
2023-01-02T03:26:29.238Z,9.70
2023-01-02T03:27:29.225Z,7.90
2023-01-02T03:28:29.220Z,9.10
2023-01-02T03:29:29.215Z,9.10
2023-01-02T03:30:29.219Z,9.50
2023-01-02T03:31:29.200Z,8.30
2023-01-02T03:32:29.194Z,9.00
2023-01-02T03:33:29.189Z,8.10
2023-01-02T03:34:29.181Z,9.90
2023-01-02T03:35:29.173Z,9.70
2023-01-02T03:36:29.208Z,11.30
2023-01-02T03:37:29.171Z,7.60
2023-01-02T03:38:29.161Z,8.30
2023-01-02T03:39:29.155Z,7.50
2023-01-02T03:40:29.141Z,6.60
2023-01-02T03:41:29.134Z,8.30
2023-01-02T03:42:29.148Z,10.30
2023-01-02T03:43:29.140Z,8.50
2023-01-02T03:44:29.116Z,8.20
2023-01-02T03:45:29.110Z,9.80
2023-01-02T03:46:29.157Z,8.80
2023-01-02T03:47:29.096Z,9.70
2023-01-02T03:48:29.090Z,7.30
2023-01-02T03:49:29.083Z,8.80
2023-01-02T03:50:29.075Z,7.20
2023-01-02T03:51:29.067Z,5.90
2023-01-02T03:52:29.063Z,8.90
2023-01-02T03:53:29.067Z,8.30
2023-01-02T03:54:29.050Z,8.60
2023-01-02T03:55:29.045Z,9.40
2023-01-02T03:56:29.036Z,6.10
2023-01-02T03:57:29.030Z,8.10
2023-01-02T03:58:29.022Z,7.90
2023-01-02T03:59:29.103Z,7.90
2023-01-02T04:00:29.020Z,10.80
2023-01-02T04:01:29.124Z,6.90
2023-01-02T04:02:29.132Z,6.10
2023-01-02T04:03:29.017Z,6.60
2023-01-02T04:04:28.983Z,7.80
2023-01-02T04:05:28.995Z,7.10
2023-01-02T04:06:28.969Z,7.00
2023-01-02T04:07:28.969Z,8.80
2023-01-02T04:08:28.973Z,8.20
2023-01-02T04:09:28.956Z,7.90
2023-01-02T04:10:28.947Z,6.30
2023-01-02T04:11:28.937Z,8.10
2023-01-02T04:12:28.935Z,7.50
2023-01-02T04:13:28.925Z,8.10
2023-01-02T04:14:28.921Z,8.10
2023-01-02T04:15:29.009Z,7.20
2023-01-02T04:16:28.905Z,7.20
2023-01-02T04:17:28.898Z,8.80
2023-01-02T04:18:28.895Z,6.60
2023-01-02T04:19:28.887Z,7.30
2023-01-02T04:20:28.886Z,7.90
2023-01-02T04:21:28.878Z,7.70
2023-01-02T04:22:28.884Z,7.80
2023-01-02T04:23:28.863Z,7.90
2023-01-02T04:24:28.861Z,6.50
2023-01-02T04:25:28.850Z,6.40
2023-01-02T04:26:28.845Z,7.50
2023-01-02T04:27:28.836Z,6.20
2023-01-02T04:28:28.831Z,6.30
2023-01-02T04:29:28.824Z,7.60
2023-01-02T04:30:28.822Z,8.30
2023-01-02T04:31:28.953Z,6.60
2023-01-02T04:32:28.805Z,7.60
2023-01-02T04:33:28.798Z,8.00
2023-01-02T04:34:28.790Z,6.90
2023-01-02T04:35:28.785Z,7.80
2023-01-02T04:36:28.776Z,6.20
2023-01-02T04:37:28.768Z,5.70
2023-01-02T04:38:28.763Z,6.50
2023-01-02T04:39:28.765Z,6.70
2023-01-02T04:40:28.767Z,7.70
2023-01-02T04:41:28.743Z,7.20
2023-01-02T04:42:28.740Z,6.10
2023-01-02T04:43:28.732Z,8.10
2023-01-02T04:44:28.726Z,6.60
2023-01-02T04:45:28.812Z,6.50
2023-01-02T04:46:28.810Z,7.80
2023-01-02T04:47:28.706Z,8.00
2023-01-02T04:48:28.716Z,6.30
2023-01-02T04:49:28.701Z,6.00
2023-01-02T04:50:28.687Z,6.40
2023-01-02T04:51:28.684Z,9.10
2023-01-02T04:52:32.076Z,6.90
2023-01-02T04:53:28.676Z,7.20
2023-01-02T04:54:28.663Z,5.60
2023-01-02T04:55:28.655Z,5.70
2023-01-02T04:56:28.649Z,7.00
2023-01-02T04:57:28.644Z,8.70
2023-01-02T04:58:28.636Z,5.70
2023-01-02T04:59:28.631Z,6.80
2023-01-02T05:00:28.626Z,5.60
2023-01-02T05:01:28.734Z,6.30
2023-01-02T05:02:28.754Z,8.20
2023-01-02T05:03:28.666Z,9.10
2023-01-02T05:04:28.597Z,8.10
2023-01-02T05:05:28.597Z,8.20
2023-01-02T05:06:28.588Z,5.60
2023-01-02T05:07:28.576Z,5.60
2023-01-02T05:08:28.572Z,8.60
2023-01-02T05:09:28.571Z,9.40
2023-01-02T05:10:28.562Z,10.40
2023-01-02T05:11:28.554Z,11.50
2023-01-02T05:12:28.544Z,11.00
2023-01-02T05:13:28.549Z,9.20
2023-01-02T05:14:28.536Z,10.30
2023-01-02T05:15:28.539Z,8.30
2023-01-02T05:16:28.626Z,8.60
2023-01-02T05:17:28.517Z,7.40
2023-01-02T05:18:28.518Z,6.30
2023-01-02T05:19:28.510Z,8.70
2023-01-02T05:20:28.497Z,8.00
2023-01-02T05:21:28.513Z,5.90
2023-01-02T05:22:28.482Z,7.40
2023-01-02T05:23:28.480Z,6.50
2023-01-02T05:24:28.470Z,6.60
2023-01-02T05:25:28.475Z,4.80
2023-01-02T05:26:28.469Z,5.00
2023-01-02T05:27:28.454Z,6.50
2023-01-02T05:28:32.390Z,5.50
2023-01-02T05:29:28.444Z,5.50
2023-01-02T05:30:28.467Z,5.90
2023-01-02T05:31:28.534Z,6.50
2023-01-02T05:32:28.421Z,5.90
2023-01-02T05:33:28.444Z,6.90
2023-01-02T05:34:28.409Z,5.10
2023-01-02T05:35:32.557Z,5.60
2023-01-02T05:36:28.399Z,5.00
2023-01-02T05:37:28.396Z,6.80
2023-01-02T05:38:28.390Z,5.10
2023-01-02T05:39:28.379Z,5.90
2023-01-02T05:40:28.420Z,5.70
2023-01-02T05:41:28.369Z,6.20
2023-01-02T05:42:28.360Z,6.90
2023-01-02T05:43:28.355Z,7.70
2023-01-02T05:44:28.349Z,5.80
2023-01-02T05:45:28.367Z,6.90
2023-01-02T05:46:28.360Z,5.90
2023-01-02T05:47:28.332Z,4.70
2023-01-02T05:48:28.325Z,5.10
2023-01-02T05:49:28.316Z,4.20
2023-01-02T05:50:28.327Z,6.50
2023-01-02T05:51:28.306Z,5.00
2023-01-02T05:52:28.303Z,6.50
2023-01-02T05:53:28.294Z,6.60
2023-01-02T05:54:28.286Z,6.80
2023-01-02T05:55:28.282Z,5.30
2023-01-02T05:56:28.277Z,5.80
2023-01-02T05:57:28.269Z,7.50
2023-01-02T05:58:28.263Z,8.90
2023-01-02T05:59:28.254Z,5.90
2023-01-02T06:00:28.254Z,5.80
2023-01-02T06:01:28.320Z,5.20
2023-01-02T06:02:28.281Z,6.40
2023-01-02T06:03:28.305Z,5.80
2023-01-02T06:04:28.226Z,5.00
2023-01-02T06:05:28.223Z,5.80
2023-01-02T06:06:28.214Z,5.80
2023-01-02T06:07:28.209Z,5.20
2023-01-02T06:08:28.202Z,5.70
2023-01-02T06:09:28.197Z,6.30
2023-01-02T06:10:28.189Z,5.10
2023-01-02T06:11:28.187Z,5.50
2023-01-02T06:12:28.175Z,5.00
2023-01-02T06:13:28.168Z,5.70
2023-01-02T06:14:28.176Z,6.50
2023-01-02T06:15:28.203Z,5.60
2023-01-02T06:16:28.182Z,5.60
2023-01-02T06:17:28.149Z,4.30
2023-01-02T06:18:28.142Z,6.00
2023-01-02T06:19:28.133Z,6.50
2023-01-02T06:20:28.127Z,5.20
2023-01-02T06:21:28.124Z,4.30
2023-01-02T06:22:28.112Z,8.20
2023-01-02T06:23:28.113Z,6.70
2023-01-02T06:24:28.115Z,6.40
2023-01-02T06:25:28.103Z,7.20
2023-01-02T06:26:34.347Z,6.90
2023-01-02T06:27:28.084Z,6.10
2023-01-02T06:28:28.082Z,5.30
2023-01-02T06:29:28.072Z,6.90
2023-01-02T06:30:28.066Z,4.90
2023-01-02T06:31:28.105Z,5.00
2023-01-02T06:32:28.051Z,5.40
2023-01-02T06:33:28.050Z,6.60
2023-01-02T06:34:28.044Z,6.20
2023-01-02T06:35:28.033Z,4.20
2023-01-02T06:36:28.027Z,5.90
2023-01-02T06:37:28.024Z,7.10
2023-01-02T06:38:28.031Z,6.90
2023-01-02T06:39:28.015Z,6.30
2023-01-02T06:40:28.006Z,7.60
2023-01-02T06:41:28.036Z,8.80
2023-01-02T06:42:27.996Z,7.70
2023-01-02T06:43:27.985Z,8.20
2023-01-02T06:44:27.983Z,8.30
2023-01-02T06:45:28.010Z,10.30
2023-01-02T06:46:27.971Z,7.00
2023-01-02T06:47:27.961Z,5.20
2023-01-02T06:48:27.963Z,6.60
2023-01-02T06:49:27.951Z,6.20
2023-01-02T06:50:34.617Z,6.70
2023-01-02T06:51:27.937Z,5.70
2023-01-02T06:52:27.937Z,5.60
2023-01-02T06:53:27.945Z,5.90
2023-01-02T06:54:27.919Z,5.90
2023-01-02T06:55:27.914Z,5.70
2023-01-02T06:56:27.906Z,6.20
2023-01-02T06:57:27.901Z,4.10
2023-01-02T06:58:27.895Z,5.20
2023-01-02T06:59:27.898Z,5.20
2023-01-02T07:00:27.887Z,5.00
2023-01-02T07:01:28.010Z,7.60
2023-01-02T07:02:28.022Z,4.90
2023-01-02T07:03:27.881Z,5.80
2023-01-02T07:04:27.860Z,4.40
2023-01-02T07:05:27.856Z,5.40
2023-01-02T07:06:27.906Z,5.60
2023-01-02T07:07:27.841Z,5.00
2023-01-02T07:08:27.838Z,7.30
2023-01-02T07:09:27.829Z,5.30
2023-01-02T07:10:27.823Z,6.40
2023-01-02T07:11:27.817Z,5.70
2023-01-02T07:12:27.824Z,6.00
2023-01-02T07:13:27.813Z,4.60
2023-01-02T07:14:27.798Z,6.10
2023-01-02T07:15:27.793Z,6.50
2023-01-02T07:16:27.807Z,5.70
2023-01-02T07:17:27.788Z,4.90
2023-01-02T07:18:27.776Z,4.60
2023-01-02T07:19:27.771Z,7.20
2023-01-02T07:20:27.773Z,5.10
2023-01-02T07:21:27.762Z,5.00
2023-01-02T07:22:27.761Z,4.70
2023-01-02T07:23:27.749Z,6.10
2023-01-02T07:24:27.741Z,4.90
2023-01-02T07:25:27.736Z,8.60
2023-01-02T07:26:27.729Z,5.50
2023-01-02T07:27:27.727Z,4.60
2023-01-02T07:28:27.711Z,5.90
2023-01-02T07:29:27.712Z,5.10
2023-01-02T07:30:27.704Z,6.20
2023-01-02T07:31:27.734Z,5.30
2023-01-02T07:32:27.931Z,7.50
2023-01-02T07:33:27.687Z,5.70
2023-01-02T07:34:27.683Z,5.80
2023-01-02T07:35:27.676Z,6.10
2023-01-02T07:36:27.683Z,6.10
2023-01-02T07:37:27.663Z,5.10
2023-01-02T07:38:27.654Z,7.50
2023-01-02T07:39:27.667Z,4.60
2023-01-02T07:40:32.168Z,5.20
2023-01-02T07:41:27.645Z,6.00
2023-01-02T07:42:27.644Z,5.80
2023-01-02T07:43:27.634Z,3.70
2023-01-02T07:44:27.620Z,5.40
2023-01-02T07:45:27.634Z,5.90
2023-01-02T07:46:27.616Z,5.30
2023-01-02T07:47:27.603Z,4.80
2023-01-02T07:48:27.597Z,4.00
2023-01-02T07:49:27.592Z,5.90
2023-01-02T07:50:27.597Z,6.10
2023-01-02T07:51:27.857Z,6.10
2023-01-02T07:52:27.573Z,5.80
2023-01-02T07:53:27.577Z,6.80
2023-01-02T07:54:27.567Z,6.00
2023-01-02T07:55:27.556Z,6.70
2023-01-02T07:56:27.557Z,6.60
2023-01-02T07:57:27.551Z,6.70
2023-01-02T07:58:27.570Z,7.00
2023-01-02T07:59:27.544Z,8.20
2023-01-02T08:00:27.539Z,5.80
2023-01-02T08:01:27.600Z,7.90
2023-01-02T08:02:27.631Z,5.70
2023-01-02T08:03:27.509Z,5.60
2023-01-02T08:04:27.585Z,7.10
2023-01-02T08:05:27.507Z,6.60
2023-01-02T08:06:27.495Z,6.40
2023-01-02T08:07:27.481Z,5.50
2023-01-02T08:08:27.482Z,5.50
2023-01-02T08:09:27.478Z,6.80
2023-01-02T08:10:27.571Z,5.00
2023-01-02T08:11:27.471Z,6.60
2023-01-02T08:12:27.456Z,6.70
2023-01-02T08:13:27.454Z,5.70
2023-01-02T08:14:27.444Z,6.00
2023-01-02T08:15:27.437Z,5.30
2023-01-02T08:16:27.464Z,10.20
2023-01-02T08:17:27.428Z,11.70
2023-01-02T08:18:27.425Z,7.00
2023-01-02T08:19:27.416Z,6.60
2023-01-02T08:20:27.413Z,6.00
2023-01-02T08:21:27.404Z,7.40
2023-01-02T08:22:27.399Z,7.20
2023-01-02T08:23:27.399Z,7.10
2023-01-02T08:24:27.398Z,8.40
2023-01-02T08:25:27.384Z,11.80
2023-01-02T08:26:27.384Z,6.10
2023-01-02T08:27:27.372Z,7.40
2023-01-02T08:28:27.371Z,8.10
2023-01-02T08:29:27.369Z,5.20
2023-01-02T08:30:27.363Z,9.10
2023-01-02T08:31:27.364Z,6.80
2023-01-02T08:32:27.349Z,6.20
2023-01-02T08:33:27.339Z,6.80
2023-01-02T08:34:27.339Z,6.30
2023-01-02T08:35:37.868Z,5.00
2023-01-02T08:36:27.331Z,7.20
2023-01-02T08:37:27.316Z,5.40
2023-01-02T08:38:27.317Z,5.90
2023-01-02T08:39:27.301Z,6.10
2023-01-02T08:40:27.300Z,5.30
2023-01-02T08:41:27.298Z,4.90
2023-01-02T08:42:27.287Z,7.50
2023-01-02T08:43:27.293Z,7.30
2023-01-02T08:44:27.277Z,7.50
2023-01-02T08:45:27.273Z,6.10
2023-01-02T08:46:27.301Z,7.10
2023-01-02T08:47:27.259Z,6.70
2023-01-02T08:48:27.253Z,6.00
2023-01-02T08:49:27.252Z,7.30
2023-01-02T08:50:27.241Z,5.60
2023-01-02T08:51:27.242Z,5.80
2023-01-02T08:52:27.231Z,7.00
2023-01-02T08:53:27.229Z,5.10
2023-01-02T08:54:27.230Z,5.60
2023-01-02T08:55:27.217Z,7.30
2023-01-02T08:56:27.210Z,6.30
2023-01-02T08:57:27.202Z,7.40
2023-01-02T08:58:27.196Z,8.00
2023-01-02T08:59:27.198Z,6.80
2023-01-02T09:00:27.198Z,7.90
2023-01-02T09:01:27.319Z,5.50
2023-01-02T09:02:27.377Z,6.10
2023-01-02T09:03:27.181Z,6.80
2023-01-02T09:04:27.169Z,7.90
2023-01-02T09:05:27.162Z,7.50
2023-01-02T09:06:27.178Z,6.30
2023-01-02T09:07:27.160Z,6.10
2023-01-02T09:08:27.151Z,7.20
2023-01-02T09:09:27.152Z,5.70
2023-01-02T09:10:27.137Z,7.30
2023-01-02T09:11:27.134Z,7.70
2023-01-02T09:12:27.125Z,8.80
2023-01-02T09:13:27.119Z,7.00
2023-01-02T09:14:27.117Z,7.60
2023-01-02T09:15:27.240Z,6.60
2023-01-02T09:16:27.103Z,5.50
2023-01-02T09:17:27.099Z,6.20
2023-01-02T09:18:29.582Z,7.20
2023-01-02T09:19:27.090Z,6.30
2023-01-02T09:20:27.079Z,5.50
2023-01-02T09:21:27.082Z,5.20
2023-01-02T09:22:27.073Z,5.90
2023-01-02T09:23:27.066Z,7.30
2023-01-02T09:24:27.060Z,5.80
2023-01-02T09:25:27.063Z,6.30
2023-01-02T09:26:27.048Z,6.70
2023-01-02T09:27:27.045Z,5.40
2023-01-02T09:28:27.039Z,4.70
2023-01-02T09:29:27.039Z,7.10
2023-01-02T09:30:27.028Z,5.70
2023-01-02T09:31:27.043Z,5.50
2023-01-02T09:32:27.023Z,4.90
2023-01-02T09:33:27.011Z,6.30
2023-01-02T09:34:27.007Z,5.10
2023-01-02T09:35:27.011Z,7.60
2023-01-02T09:36:27.007Z,7.40
2023-01-02T09:37:26.999Z,6.00
2023-01-02T09:38:26.987Z,5.00
2023-01-02T09:39:32.165Z,7.30
2023-01-02T09:40:26.979Z,7.50
2023-01-02T09:41:27.008Z,6.30
2023-01-02T09:42:26.971Z,5.40
2023-01-02T09:43:26.962Z,5.30
2023-01-02T09:44:26.962Z,7.10
2023-01-02T09:45:26.956Z,5.20
2023-01-02T09:46:26.967Z,7.30
2023-01-02T09:47:26.943Z,6.50
2023-01-02T09:48:26.937Z,7.80
2023-01-02T09:49:26.933Z,6.50
2023-01-02T09:50:26.939Z,6.20
2023-01-02T09:51:26.921Z,6.70
2023-01-02T09:52:26.918Z,7.70
2023-01-02T09:53:26.924Z,6.50
2023-01-02T09:54:26.910Z,8.80
2023-01-02T09:55:26.907Z,6.70
2023-01-02T09:56:31.881Z,4.80
2023-01-02T09:57:26.946Z,7.10
2023-01-02T09:58:26.883Z,5.20
2023-01-02T09:59:26.891Z,5.70
2023-01-02T10:00:26.896Z,8.60
2023-01-02T10:01:26.936Z,6.40
2023-01-02T10:02:26.899Z,7.90
2023-01-02T10:03:26.988Z,7.10
2023-01-02T10:04:26.859Z,6.30
2023-01-02T10:05:26.875Z,7.70
2023-01-02T10:06:26.859Z,6.70
2023-01-02T10:07:26.843Z,7.50
2023-01-02T10:08:31.870Z,6.60
2023-01-02T10:09:26.834Z,7.60
2023-01-02T10:10:26.827Z,7.30
2023-01-02T10:11:26.832Z,7.30
2023-01-02T10:12:26.819Z,6.20
2023-01-02T10:13:37.574Z,7.10
2023-01-02T10:14:35.033Z,14.40
2023-01-02T10:15:26.811Z,6.70
2023-01-02T10:16:26.889Z,8.20
2023-01-02T10:17:26.798Z,5.50
2023-01-02T10:18:26.789Z,14.70
2023-01-02T10:19:26.785Z,12.50
2023-01-02T10:20:26.796Z,8.20
2023-01-02T10:21:26.784Z,11.70
2023-01-02T10:22:26.768Z,8.80
2023-01-02T10:23:26.769Z,5.40
2023-01-02T10:24:26.762Z,9.30
2023-01-02T10:25:26.775Z,7.50
2023-01-02T10:26:26.750Z,8.40
2023-01-02T10:27:26.747Z,6.90
2023-01-02T10:28:26.743Z,8.50
2023-01-02T10:29:26.736Z,7.20
2023-01-02T10:30:26.753Z,8.60
2023-01-02T10:31:26.760Z,6.30
2023-01-02T10:32:26.725Z,8.70
2023-01-02T10:33:26.720Z,8.10
2023-01-02T10:34:26.713Z,7.00
2023-01-02T10:35:26.714Z,8.10
2023-01-02T10:36:26.707Z,9.10
2023-01-02T10:37:26.716Z,14.00
2023-01-02T10:38:26.704Z,8.20
2023-01-02T10:39:26.687Z,8.50
2023-01-02T10:40:26.703Z,7.50
2023-01-02T10:41:26.680Z,6.10
2023-01-02T10:42:26.673Z,7.90
2023-01-02T10:43:26.670Z,6.10
2023-01-02T10:44:26.660Z,9.10
2023-01-02T10:45:26.660Z,7.10
2023-01-02T10:46:26.695Z,9.40
2023-01-02T10:47:26.651Z,9.90
2023-01-02T10:48:26.645Z,8.60
2023-01-02T10:49:26.639Z,9.30
2023-01-02T10:50:26.635Z,7.40
2023-01-02T10:51:26.643Z,7.60
2023-01-02T10:52:26.626Z,9.30
2023-01-02T10:53:26.623Z,7.30
2023-01-02T10:54:26.615Z,9.00
2023-01-02T10:55:26.612Z,7.20
2023-01-02T10:56:26.610Z,6.00
2023-01-02T10:57:26.609Z,6.60
2023-01-02T10:58:26.598Z,6.80
2023-01-02T10:59:26.589Z,5.00
2023-01-02T11:00:28.391Z,7.50
2023-01-02T11:01:26.664Z,8.60
2023-01-02T11:02:26.673Z,5.90
2023-01-02T11:03:26.573Z,8.30
2023-01-02T11:04:26.577Z,6.70
2023-01-02T11:05:26.573Z,8.20
2023-01-02T11:06:28.269Z,9.10
2023-01-02T11:07:26.554Z,8.30
2023-01-02T11:08:26.551Z,7.80
2023-01-02T11:09:26.544Z,6.90
2023-01-02T11:10:26.558Z,5.10
2023-01-02T11:11:26.619Z,6.20
2023-01-02T11:12:27.608Z,7.90
2023-01-02T11:13:26.533Z,7.10
2023-01-02T11:14:26.521Z,6.30
2023-01-02T11:15:26.529Z,8.00
2023-01-02T11:16:26.612Z,6.40
2023-01-02T11:17:26.508Z,8.20
2023-01-02T11:18:26.500Z,8.50
2023-01-02T11:19:29.856Z,14.00
2023-01-02T11:20:26.503Z,6.40
2023-01-02T11:21:26.496Z,8.10
2023-01-02T11:22:26.483Z,6.80
2023-01-02T11:23:26.481Z,7.10
2023-01-02T11:24:26.478Z,6.40
2023-01-02T11:25:26.475Z,7.30
2023-01-02T11:26:26.468Z,6.60
2023-01-02T11:27:26.461Z,9.30
2023-01-02T11:28:26.454Z,7.80
2023-01-02T11:29:26.456Z,10.40
2023-01-02T11:30:26.446Z,6.50
2023-01-02T11:31:26.464Z,7.20
2023-01-02T11:32:26.439Z,8.10
2023-01-02T11:33:26.438Z,7.10
2023-01-02T11:34:26.431Z,7.40
2023-01-02T11:35:26.429Z,8.90
2023-01-02T11:36:26.433Z,7.10
2023-01-02T11:37:26.423Z,6.60
2023-01-02T11:38:29.355Z,8.40
2023-01-02T11:39:26.401Z,8.40
2023-01-02T11:40:26.400Z,7.10
2023-01-02T11:41:26.391Z,6.60
2023-01-02T11:42:26.385Z,6.60
2023-01-02T11:43:26.387Z,9.20
2023-01-02T11:44:26.384Z,7.30
2023-01-02T11:45:26.401Z,8.50
2023-01-02T11:46:26.367Z,9.10
2023-01-02T11:47:26.364Z,7.20
2023-01-02T11:48:26.366Z,9.50
2023-01-02T11:49:26.354Z,8.70
2023-01-02T11:50:26.348Z,8.30
2023-01-02T11:51:26.349Z,6.70
2023-01-02T11:52:26.345Z,6.30
2023-01-02T11:53:26.331Z,6.70
2023-01-02T11:54:26.330Z,6.20
2023-01-02T11:55:26.321Z,7.60
2023-01-02T11:56:26.319Z,5.90
2023-01-02T11:57:26.313Z,7.40
2023-01-02T11:58:26.315Z,7.20
2023-01-02T11:59:26.304Z,7.20
2023-01-02T12:00:26.298Z,8.50
2023-01-02T12:01:26.339Z,7.00
2023-01-02T12:02:26.320Z,6.40
2023-01-02T12:03:26.425Z,8.70
2023-01-02T12:04:26.308Z,5.80
2023-01-02T12:05:26.275Z,7.80
2023-01-02T12:06:26.284Z,7.90
2023-01-02T12:07:26.269Z,7.30
2023-01-02T12:08:26.259Z,5.90
2023-01-02T12:09:26.253Z,6.40
2023-01-02T12:10:26.270Z,6.30
2023-01-02T12:11:26.261Z,6.00
2023-01-02T12:12:26.243Z,6.50
2023-01-02T12:13:26.237Z,5.50
2023-01-02T12:14:26.237Z,6.80
2023-01-02T12:15:26.225Z,7.50
2023-01-02T12:16:26.250Z,6.70
2023-01-02T12:17:26.212Z,7.20
2023-01-02T12:18:26.212Z,8.60
2023-01-02T12:19:26.200Z,6.70
2023-01-02T12:20:26.199Z,6.10
2023-01-02T12:21:26.196Z,10.00
2023-01-02T12:22:26.262Z,9.70
2023-01-02T12:23:26.181Z,7.50
2023-01-02T12:24:26.177Z,9.60
2023-01-02T12:25:26.168Z,9.50
2023-01-02T12:26:26.178Z,7.70
2023-01-02T12:27:26.161Z,7.00
2023-01-02T12:28:26.160Z,6.80
2023-01-02T12:29:47.041Z,7.00
2023-01-02T12:30:26.147Z,9.60
2023-01-02T12:31:26.198Z,8.20
2023-01-02T12:32:26.190Z,6.30
2023-01-02T12:33:26.132Z,8.60
2023-01-02T12:34:26.136Z,8.00
2023-01-02T12:35:26.138Z,8.30
2023-01-02T12:36:26.117Z,9.10
2023-01-02T12:37:26.111Z,9.80
2023-01-02T12:38:30.055Z,9.20
2023-01-02T12:39:26.101Z,7.70
2023-01-02T12:40:26.096Z,7.70
2023-01-02T12:41:26.095Z,7.00
2023-01-02T12:42:26.083Z,7.40
2023-01-02T12:43:26.078Z,8.30
2023-01-02T12:44:31.464Z,9.30
2023-01-02T12:45:26.087Z,7.90
2023-01-02T12:46:26.069Z,11.50
2023-01-02T12:47:26.450Z,7.70
2023-01-02T12:48:26.053Z,8.00
2023-01-02T12:49:26.062Z,8.70
2023-01-02T12:50:26.043Z,9.70
2023-01-02T12:51:26.067Z,9.50
2023-01-02T12:52:26.037Z,8.60
2023-01-02T12:53:26.028Z,7.90
2023-01-02T12:54:26.032Z,9.50
2023-01-02T12:55:26.022Z,7.60
2023-01-02T12:56:26.027Z,6.70
2023-01-02T12:57:26.099Z,6.60
2023-01-02T12:58:26.011Z,7.90
2023-01-02T12:59:25.998Z,6.60
2023-01-02T13:00:25.991Z,8.30
2023-01-02T13:01:26.135Z,9.70
2023-01-02T13:02:26.125Z,8.10
2023-01-02T13:03:26.044Z,8.90
2023-01-02T13:04:25.974Z,8.60
2023-01-02T13:05:25.968Z,8.20
2023-01-02T13:06:43.800Z,8.30
2023-01-02T13:07:25.956Z,7.40
2023-01-02T13:08:25.952Z,7.80
2023-01-02T13:09:25.946Z,8.30
2023-01-02T13:10:25.944Z,10.10
2023-01-02T13:11:25.937Z,10.10
2023-01-02T13:12:25.935Z,8.00
2023-01-02T13:13:25.927Z,5.40